sensor_id;sensor_type;location;lat;lon;timestamp;temperature;humidity
8824;DHT22;4448;50.904;4.694;2024-02-26T01:32:34;8.80;99.90
8824;DHT22;4448;50.904;4.694;2024-02-26T01:35:01;8.90;99.90
8824;DHT22;4448;50.904;4.694;2024-02-26T01:37:29;8.80;99.90
8824;DHT22;4448;50.904;4.694;2024-02-26T01:39:55;8.70;99.90
8824;DHT22;4448;50.904;4.694;2024-02-26T01:42:21;8.70;99.90
8824;DHT22;4448;50.904;4.694;2024-02-26T01:44:46;8.60;99.90
8824;DHT22;4448;50.904;4.694;2024-02-26T01:47:13;8.50;99.90
8824;DHT22;4448;50.904;4.694;2024-02-26T01:49:38;8.50;99.90
8824;DHT22;4448;50.904;4.694;2024-02-26T01:52:06;8.50;99.90
8824;DHT22;4448;50.904;4.694;2024-02-26T01:54:35;8.50;99.90
8824;DHT22;4448;50.904;4.694;2024-02-26T01:57:03;8.50;99.90
8824;DHT22;4448;50.904;4.694;2024-02-26T01:59:29;8.50;99.90
8824;DHT22;4448;50.904;4.694;2024-02-26T02:01:57;8.40;99.90
8824;DHT22;4448;50.904;4.694;2024-02-26T02:04:24;8.40;99.90
8824;DHT22;4448;50.904;4.694;2024-02-26T02:06:50;8.40;99.90
8824;DHT22;4448;50.904;4.694;2024-02-26T02:09:18;8.40;99.90
8824;DHT22;4448;50.904;4.694;2024-02-26T02:11:43;8.40;99.90
8824;DHT22;4448;50.904;4.694;2024-02-26T02:14:10;8.30;99.90
8824;DHT22;4448;50.904;4.694;2024-02-26T02:16:36;8.30;99.90
8824;DHT22;4448;50.904;4.694;2024-02-26T02:19:02;8.20;99.90
8824;DHT22;4448;50.904;4.694;2024-02-26T02:21:27;8.20;99.90
8824;DHT22;4448;50.904;4.694;2024-02-26T02:23:53;8.10;99.90
8824;DHT22;4448;50.904;4.694;2024-02-26T02:26:18;8.00;99.90
8824;DHT22;4448;50.904;4.694;2024-02-26T02:28:45;8.00;99.90
8824;DHT22;4448;50.904;4.694;2024-02-26T02:31:11;8.00;99.90
8824;DHT22;4448;50.904;4.694;2024-02-26T02:33:37;8.00;99.90
8824;DHT22;4448;50.904;4.694;2024-02-26T02:36:03;8.00;99.90
8824;DHT22;4448;50.904;4.694;2024-02-26T02:38:29;8.00;99.90
8824;DHT22;4448;50.904;4.694;2024-02-26T02:40:55;7.90;99.90
8824;DHT22;4448;50.904;4.694;2024-02-26T02:43:21;7.90;99.90
8824;DHT22;4448;50.904;4.694;2024-02-26T02:45:47;7.90;99.90
8824;DHT22;4448;50.904;4.694;2024-02-26T02:48:12;7.90;99.90
8824;DHT22;4448;50.904;4.694;2024-02-26T02:50:38;7.90;99.90
8824;DHT22;4448;50.904;4.694;2024-02-26T02:53:04;7.90;99.90
8824;DHT22;4448;50.904;4.694;2024-02-26T02:55:30;7.90;99.90
8824;DHT22;4448;50.904;4.694;2024-02-26T02:57:55;7.90;99.90
8824;DHT22;4448;50.904;4.694;2024-02-26T03:00:21;7.90;99.90
8824;DHT22;4448;50.904;4.694;2024-02-26T03:02:49;7.80;99.90
8824;DHT22;4448;50.904;4.694;2024-02-26T03:05:15;7.80;99.90
8824;DHT22;4448;50.904;4.694;2024-02-26T03:07:41;7.70;99.90
8824;DHT22;4448;50.904;4.694;2024-02-26T03:10:07;7.80;99.90
8824;DHT22;4448;50.904;4.694;2024-02-26T03:12:33;7.70;99.90
8824;DHT22;4448;50.904;4.694;2024-02-26T03:14:59;7.70;99.90
8824;DHT22;4448;50.904;4.694;2024-02-26T03:17:28;7.70;99.90
8824;DHT22;4448;50.904;4.694;2024-02-26T03:19:54;7.70;99.90
8824;DHT22;4448;50.904;4.694;2024-02-26T03:22:20;7.70;99.90
8824;DHT22;4448;50.904;4.694;2024-02-26T03:24:46;7.70;99.90
8824;DHT22;4448;50.904;4.694;2024-02-26T03:27:12;7.70;99.90
8824;DHT22;4448;50.904;4.694;2024-02-26T03:29:38;7.60;99.90
8824;DHT22;4448;50.904;4.694;2024-02-26T03:32:04;7.60;99.90
8824;DHT22;4448;50.904;4.694;2024-02-26T03:34:30;7.70;99.90
8824;DHT22;4448;50.904;4.694;2024-02-26T03:36:57;7.60;99.90
8824;DHT22;4448;50.904;4.694;2024-02-26T03:39:22;7.70;99.90
8824;DHT22;4448;50.904;4.694;2024-02-26T03:41:48;7.60;99.90
8824;DHT22;4448;50.904;4.694;2024-02-26T03:44:14;7.60;99.90
8824;DHT22;4448;50.904;4.694;2024-02-26T03:46:40;7.60;99.90
8824;DHT22;4448;50.904;4.694;2024-02-26T03:49:08;7.60;99.90
8824;DHT22;4448;50.904;4.694;2024-02-26T03:51:34;7.60;99.90
8824;DHT22;4448;50.904;4.694;2024-02-26T03:54:00;7.60;99.90
8824;DHT22;4448;50.904;4.694;2024-02-26T03:56:26;7.60;99.90
8824;DHT22;4448;50.904;4.694;2024-02-26T03:58:52;7.60;99.90
8824;DHT22;4448;50.904;4.694;2024-02-26T04:01:18;7.60;99.90
8824;DHT22;4448;50.904;4.694;2024-02-26T04:03:44;7.60;99.90
8824;DHT22;4448;50.904;4.694;2024-02-26T04:06:10;7.60;99.90
8824;DHT22;4448;50.904;4.694;2024-02-26T04:08:43;7.60;99.90
8824;DHT22;4448;50.904;4.694;2024-02-26T04:11:09;7.60;99.90
8824;DHT22;4448;50.904;4.694;2024-02-26T04:13:35;7.60;99.90
8824;DHT22;4448;50.904;4.694;2024-02-26T04:16:01;7.60;99.90
8824;DHT22;4448;50.904;4.694;2024-02-26T04:18:28;7.60;99.90
8824;DHT22;4448;50.904;4.694;2024-02-26T04:20:54;7.60;99.90
8824;DHT22;4448;50.904;4.694;2024-02-26T04:23:19;7.60;99.90
8824;DHT22;4448;50.904;4.694;2024-02-26T04:25:45;7.60;99.90
8824;DHT22;4448;50.904;4.694;2024-02-26T04:28:11;7.60;99.90
8824;DHT22;4448;50.904;4.694;2024-02-26T04:30:38;7.60;99.90
8824;DHT22;4448;50.904;4.694;2024-02-26T04:33:03;7.60;99.90
8824;DHT22;4448;50.904;4.694;2024-02-26T04:35:29;7.60;99.90
8824;DHT22;4448;50.904;4.694;2024-02-26T04:37:55;7.60;99.90
8824;DHT22;4448;50.904;4.694;2024-02-26T04:40:21;7.60;99.90
8824;DHT22;4448;50.904;4.694;2024-02-26T04:42:46;7.60;99.90
8824;DHT22;4448;50.904;4.694;2024-02-26T04:45:12;7.60;99.90
8824;DHT22;4448;50.904;4.694;2024-02-26T04:47:38;7.60;99.90
8824;DHT22;4448;50.904;4.694;2024-02-26T04:50:03;7.60;99.90
8824;DHT22;4448;50.904;4.694;2024-02-26T04:52:29;7.60;99.90
8824;DHT22;4448;50.904;4.694;2024-02-26T04:54:55;7.60;99.90
8824;DHT22;4448;50.904;4.694;2024-02-26T04:57:21;7.50;99.90
8824;DHT22;4448;50.904;4.694;2024-02-26T04:59:47;7.60;99.90
8824;DHT22;4448;50.904;4.694;2024-02-26T05:02:13;7.60;99.90
8824;DHT22;4448;50.904;4.694;2024-02-26T05:04:40;7.60;99.90
8824;DHT22;4448;50.904;4.694;2024-02-26T05:07:06;7.60;99.90
8824;DHT22;4448;50.904;4.694;2024-02-26T05:09:32;7.60;99.90
8824;DHT22;4448;50.904;4.694;2024-02-26T05:11:57;7.50;99.90
8824;DHT22;4448;50.904;4.694;2024-02-26T05:14:23;7.60;99.90
8824;DHT22;4448;50.904;4.694;2024-02-26T05:16:49;7.60;99.90
8824;DHT22;4448;50.904;4.694;2024-02-26T05:19:14;7.60;99.90
8824;DHT22;4448;50.904;4.694;2024-02-26T05:21:40;7.60;99.90
8824;DHT22;4448;50.904;4.694;2024-02-26T05:24:06;7.60;99.90
8824;DHT22;4448;50.904;4.694;2024-02-26T05:26:31;7.60;99.90
8824;DHT22;4448;50.904;4.694;2024-02-26T05:28:57;7.60;99.90
8824;DHT22;4448;50.904;4.694;2024-02-26T05:31:26;7.60;99.90
8824;DHT22;4448;50.904;4.694;2024-02-26T05:33:52;7.60;99.90
8824;DHT22;4448;50.904;4.694;2024-02-26T05:36:18;7.60;99.90
8824;DHT22;4448;50.904;4.694;2024-02-26T05:38:44;7.60;99.90
8824;DHT22;4448;50.904;4.694;2024-02-26T05:41:12;7.60;99.90
8824;DHT22;4448;50.904;4.694;2024-02-26T05:43:37;7.60;99.90
8824;DHT22;4448;50.904;4.694;2024-02-26T05:46:03;7.60;99.90
8824;DHT22;4448;50.904;4.694;2024-02-26T05:48:29;7.60;99.90
8824;DHT22;4448;50.904;4.694;2024-02-26T05:50:54;7.60;99.90
8824;DHT22;4448;50.904;4.694;2024-02-26T05:53:20;7.60;99.90
8824;DHT22;4448;50.904;4.694;2024-02-26T05:55:46;7.60;99.90
8824;DHT22;4448;50.904;4.694;2024-02-26T05:58:11;7.60;99.90
8824;DHT22;4448;50.904;4.694;2024-02-26T06:00:37;7.60;99.90
8824;DHT22;4448;50.904;4.694;2024-02-26T06:03:03;7.60;99.90
8824;DHT22;4448;50.904;4.694;2024-02-26T06:05:28;7.60;99.90
8824;DHT22;4448;50.904;4.694;2024-02-26T06:07:54;7.60;99.90
8824;DHT22;4448;50.904;4.694;2024-02-26T06:10:20;7.60;99.90
8824;DHT22;4448;50.904;4.694;2024-02-26T06:12:47;7.60;99.90
8824;DHT22;4448;50.904;4.694;2024-02-26T06:15:12;7.60;99.90
8824;DHT22;4448;50.904;4.694;2024-02-26T06:17:38;7.60;99.90
8824;DHT22;4448;50.904;4.694;2024-02-26T06:20:04;7.60;99.90
8824;DHT22;4448;50.904;4.694;2024-02-26T06:22:31;7.60;99.90
8824;DHT22;4448;50.904;4.694;2024-02-26T06:24:57;7.50;99.90
8824;DHT22;4448;50.904;4.694;2024-02-26T06:27:23;7.50;99.90
8824;DHT22;4448;50.904;4.694;2024-02-26T06:29:49;7.60;99.90
8824;DHT22;4448;50.904;4.694;2024-02-26T06:32:15;7.60;99.90
8824;DHT22;4448;50.904;4.694;2024-02-26T06:34:40;7.60;99.90
8824;DHT22;4448;50.904;4.694;2024-02-26T06:37:08;7.60;99.90
8824;DHT22;4448;50.904;4.694;2024-02-26T06:39:33;7.60;99.90
8824;DHT22;4448;50.904;4.694;2024-02-26T06:41:59;7.60;99.90
8824;DHT22;4448;50.904;4.694;2024-02-26T06:44:28;7.60;99.90
8824;DHT22;4448;50.904;4.694;2024-02-26T06:47:00;7.60;99.90
8824;DHT22;4448;50.904;4.694;2024-02-26T06:49:26;7.60;99.90
8824;DHT22;4448;50.904;4.694;2024-02-26T06:51:53;7.60;99.90
8824;DHT22;4448;50.904;4.694;2024-02-26T06:54:18;7.60;99.90
8824;DHT22;4448;50.904;4.694;2024-02-26T06:56:44;7.60;99.90
8824;DHT22;4448;50.904;4.694;2024-02-26T06:59:10;7.60;99.90
8824;DHT22;4448;50.904;4.694;2024-02-26T07:01:36;7.60;99.90
8824;DHT22;4448;50.904;4.694;2024-02-26T07:04:01;7.60;99.90
8824;DHT22;4448;50.904;4.694;2024-02-26T07:06:27;7.60;99.90
8824;DHT22;4448;50.904;4.694;2024-02-26T07:08:53;8.00;99.90
8824;DHT22;4448;50.904;4.694;2024-02-26T07:11:19;7.60;99.90
8824;DHT22;4448;50.904;4.694;2024-02-26T07:13:46;7.60;99.90
8824;DHT22;4448;50.904;4.694;2024-02-26T07:16:11;7.60;99.90
8824;DHT22;4448;50.904;4.694;2024-02-26T07:18:39;7.60;99.90
8824;DHT22;4448;50.904;4.694;2024-02-26T07:21:05;7.60;99.90
8824;DHT22;4448;50.904;4.694;2024-02-26T07:23:31;7.60;99.90
8824;DHT22;4448;50.904;4.694;2024-02-26T07:25:56;7.60;99.90
8824;DHT22;4448;50.904;4.694;2024-02-26T07:28:22;7.60;99.90
8824;DHT22;4448;50.904;4.694;2024-02-26T07:30:48;7.60;99.90
8824;DHT22;4448;50.904;4.694;2024-02-26T07:33:13;7.70;99.90
8824;DHT22;4448;50.904;4.694;2024-02-26T07:35:39;7.70;99.90
8824;DHT22;4448;50.904;4.694;2024-02-26T07:38:05;7.70;99.90
8824;DHT22;4448;50.904;4.694;2024-02-26T07:40:30;7.70;99.90
8824;DHT22;4448;50.904;4.694;2024-02-26T07:42:56;7.70;99.90
8824;DHT22;4448;50.904;4.694;2024-02-26T07:45:22;7.70;99.90
8824;DHT22;4448;50.904;4.694;2024-02-26T07:47:48;7.70;99.90
8824;DHT22;4448;50.904;4.694;2024-02-26T07:50:13;7.70;99.90
8824;DHT22;4448;50.904;4.694;2024-02-26T07:52:39;7.80;99.90
8824;DHT22;4448;50.904;4.694;2024-02-26T07:55:06;7.70;99.90
8824;DHT22;4448;50.904;4.694;2024-02-26T07:57:32;7.80;99.90
8824;DHT22;4448;50.904;4.694;2024-02-26T07:59:59;7.80;99.90
8824;DHT22;4448;50.904;4.694;2024-02-26T08:02:25;7.80;99.90
8824;DHT22;4448;50.904;4.694;2024-02-26T08:04:50;7.80;99.90
8824;DHT22;4448;50.904;4.694;2024-02-26T08:07:16;7.80;99.90
8824;DHT22;4448;50.904;4.694;2024-02-26T08:09:42;7.80;99.90
8824;DHT22;4448;50.904;4.694;2024-02-26T08:12:07;7.80;99.90
8824;DHT22;4448;50.904;4.694;2024-02-26T08:14:33;7.80;99.90
8824;DHT22;4448;50.904;4.694;2024-02-26T08:16:59;7.80;99.90
8824;DHT22;4448;50.904;4.694;2024-02-26T08:19:25;7.80;99.90
8824;DHT22;4448;50.904;4.694;2024-02-26T08:21:51;7.80;99.90
8824;DHT22;4448;50.904;4.694;2024-02-26T08:24:17;7.80;99.90
8824;DHT22;4448;50.904;4.694;2024-02-26T08:26:43;7.80;99.90
8824;DHT22;4448;50.904;4.694;2024-02-26T08:29:08;7.80;99.90
8824;DHT22;4448;50.904;4.694;2024-02-26T08:31:34;7.80;99.90
8824;DHT22;4448;50.904;4.694;2024-02-26T08:34:03;7.80;99.90
8824;DHT22;4448;50.904;4.694;2024-02-26T08:36:30;7.80;99.90
8824;DHT22;4448;50.904;4.694;2024-02-26T08:38:55;7.80;99.90
8824;DHT22;4448;50.904;4.694;2024-02-26T08:41:21;7.80;99.90
8824;DHT22;4448;50.904;4.694;2024-02-26T08:43:46;7.80;99.90
8824;DHT22;4448;50.904;4.694;2024-02-26T08:46:12;7.80;99.90
8824;DHT22;4448;50.904;4.694;2024-02-26T08:48:39;7.80;99.90
8824;DHT22;4448;50.904;4.694;2024-02-26T08:51:08;7.80;99.90
8824;DHT22;4448;50.904;4.694;2024-02-26T08:53:37;7.80;99.90
8824;DHT22;4448;50.904;4.694;2024-02-26T08:56:03;7.80;99.90
8824;DHT22;4448;50.904;4.694;2024-02-26T08:58:29;7.80;99.90
8824;DHT22;4448;50.904;4.694;2024-02-26T09:00:55;7.80;99.90
8824;DHT22;4448;50.904;4.694;2024-02-26T09:03:21;7.70;99.90
8824;DHT22;4448;50.904;4.694;2024-02-26T09:05:47;7.80;99.90
8824;DHT22;4448;50.904;4.694;2024-02-26T09:08:12;7.70;99.90
8824;DHT22;4448;50.904;4.694;2024-02-26T09:10:39;7.70;99.90
8824;DHT22;4448;50.904;4.694;2024-02-26T09:13:04;7.70;99.90
8824;DHT22;4448;50.904;4.694;2024-02-26T09:15:30;7.80;99.90
8824;DHT22;4448;50.904;4.694;2024-02-26T09:17:56;7.80;99.90
8824;DHT22;4448;50.904;4.694;2024-02-26T09:20:22;7.80;99.90
8824;DHT22;4448;50.904;4.694;2024-02-26T09:22:49;7.80;99.90
8824;DHT22;4448;50.904;4.694;2024-02-26T09:25:15;7.80;99.90
8824;DHT22;4448;50.904;4.694;2024-02-26T09:27:42;7.80;99.90
8824;DHT22;4448;50.904;4.694;2024-02-26T09:30:17;7.80;99.90
8824;DHT22;4448;50.904;4.694;2024-02-26T09:32:46;7.80;99.90
8824;DHT22;4448;50.904;4.694;2024-02-26T09:35:13;7.80;99.90
8824;DHT22;4448;50.904;4.694;2024-02-26T09:37:39;7.80;99.90
8824;DHT22;4448;50.904;4.694;2024-02-26T09:40:05;7.80;99.90
8824;DHT22;4448;50.904;4.694;2024-02-26T09:42:35;7.80;99.90
8824;DHT22;4448;50.904;4.694;2024-02-26T09:45:05;7.80;99.90
8824;DHT22;4448;50.904;4.694;2024-02-26T09:47:36;7.80;99.90
8824;DHT22;4448;50.904;4.694;2024-02-26T09:50:04;7.80;99.90
8824;DHT22;4448;50.904;4.694;2024-02-26T09:52:33;7.80;99.90
8824;DHT22;4448;50.904;4.694;2024-02-26T09:55:00;7.80;99.90
8824;DHT22;4448;50.904;4.694;2024-02-26T09:57:26;7.80;99.90
8824;DHT22;4448;50.904;4.694;2024-02-26T09:59:54;7.80;99.90
8824;DHT22;4448;50.904;4.694;2024-02-26T10:02:21;7.80;99.90
8824;DHT22;4448;50.904;4.694;2024-02-26T10:04:48;7.80;99.90
8824;DHT22;4448;50.904;4.694;2024-02-26T10:07:16;7.80;99.90
8824;DHT22;4448;50.904;4.694;2024-02-26T10:09:42;7.80;99.90
8824;DHT22;4448;50.904;4.694;2024-02-26T10:12:10;7.80;99.90
8824;DHT22;4448;50.904;4.694;2024-02-26T10:14:36;7.80;99.90
8824;DHT22;4448;50.904;4.694;2024-02-26T10:17:02;7.70;99.90
8824;DHT22;4448;50.904;4.694;2024-02-26T10:19:29;7.70;99.90
8824;DHT22;4448;50.904;4.694;2024-02-26T10:22:00;7.70;99.90
8824;DHT22;4448;50.904;4.694;2024-02-26T10:24:27;7.70;99.90
8824;DHT22;4448;50.904;4.694;2024-02-26T10:26:54;7.70;99.90
8824;DHT22;4448;50.904;4.694;2024-02-26T10:29:21;7.70;99.90
8824;DHT22;4448;50.904;4.694;2024-02-26T10:31:47;7.70;99.90
8824;DHT22;4448;50.904;4.694;2024-02-26T10:34:14;7.70;99.90
8824;DHT22;4448;50.904;4.694;2024-02-26T10:36:40;7.70;99.90
8824;DHT22;4448;50.904;4.694;2024-02-26T10:39:06;7.70;99.90
8824;DHT22;4448;50.904;4.694;2024-02-26T10:41:35;7.70;99.90
8824;DHT22;4448;50.904;4.694;2024-02-26T10:44:01;7.70;99.90
8824;DHT22;4448;50.904;4.694;2024-02-26T10:46:27;7.70;99.90
8824;DHT22;4448;50.904;4.694;2024-02-26T10:48:54;7.60;99.90
8824;DHT22;4448;50.904;4.694;2024-02-26T10:51:30;7.60;99.90
8824;DHT22;4448;50.904;4.694;2024-02-26T10:53:57;7.60;99.90
8824;DHT22;4448;50.904;4.694;2024-02-26T10:56:34;7.60;99.90
8824;DHT22;4448;50.904;4.694;2024-02-26T10:59:04;7.60;99.90
8824;DHT22;4448;50.904;4.694;2024-02-26T11:01:31;7.60;99.90
8824;DHT22;4448;50.904;4.694;2024-02-26T11:03:58;7.60;99.90
8824;DHT22;4448;50.904;4.694;2024-02-26T11:06:26;7.60;99.90
8824;DHT22;4448;50.904;4.694;2024-02-26T11:08:53;7.60;99.90
8824;DHT22;4448;50.904;4.694;2024-02-26T11:31:02;7.70;99.90
8824;DHT22;4448;50.904;4.694;2024-02-26T11:33:30;7.70;99.90
8824;DHT22;4448;50.904;4.694;2024-02-26T11:35:56;7.60;99.90
8824;DHT22;4448;50.904;4.694;2024-02-26T11:38:24;7.60;99.90
8824;DHT22;4448;50.904;4.694;2024-02-26T11:40:50;7.50;99.90
8824;DHT22;4448;50.904;4.694;2024-02-26T11:43:16;7.50;99.90
8824;DHT22;4448;50.904;4.694;2024-02-26T11:48:15;7.50;99.90
8824;DHT22;4448;50.904;4.694;2024-02-26T11:50:46;7.40;99.90
8824;DHT22;4448;50.904;4.694;2024-02-26T11:56:11;7.40;99.90
8824;DHT22;4448;50.904;4.694;2024-02-26T11:58:34;7.40;99.90
8824;DHT22;4448;50.904;4.694;2024-02-26T12:01:00;7.40;99.90
8824;DHT22;4448;50.904;4.694;2024-02-26T12:03:25;7.40;99.90
8824;DHT22;4448;50.904;4.694;2024-02-26T12:05:52;7.40;99.90
8824;DHT22;4448;50.904;4.694;2024-02-26T12:08:17;7.40;99.90
8824;DHT22;4448;50.904;4.694;2024-02-26T12:10:46;7.40;99.90
8824;DHT22;4448;50.904;4.694;2024-02-26T12:13:15;7.40;99.90
8824;DHT22;4448;50.904;4.694;2024-02-26T12:15:54;7.40;99.90
8824;DHT22;4448;50.904;4.694;2024-02-26T12:18:21;7.30;99.90
8824;DHT22;4448;50.904;4.694;2024-02-26T12:21:03;7.30;99.90
8824;DHT22;4448;50.904;4.694;2024-02-26T12:23:30;7.30;99.90
8824;DHT22;4448;50.904;4.694;2024-02-26T12:25:59;7.30;99.90
8824;DHT22;4448;50.904;4.694;2024-02-26T12:28:29;7.30;99.90
8824;DHT22;4448;50.904;4.694;2024-02-26T12:30:55;7.30;99.90
8824;DHT22;4448;50.904;4.694;2024-02-26T12:33:21;7.30;99.90
8824;DHT22;4448;50.904;4.694;2024-02-26T12:35:46;7.30;99.90
8824;DHT22;4448;50.904;4.694;2024-02-26T12:38:15;7.30;99.90
8824;DHT22;4448;50.904;4.694;2024-02-26T12:40:41;7.40;99.90
8824;DHT22;4448;50.904;4.694;2024-02-26T12:43:07;7.30;99.90
8824;DHT22;4448;50.904;4.694;2024-02-26T12:45:40;7.40;99.90
8824;DHT22;4448;50.904;4.694;2024-02-26T12:48:06;7.50;99.90
8824;DHT22;4448;50.904;4.694;2024-02-26T12:50:32;7.40;99.90
8824;DHT22;4448;50.904;4.694;2024-02-26T12:52:59;7.30;99.90
8824;DHT22;4448;50.904;4.694;2024-02-26T12:55:25;7.40;99.90
8824;DHT22;4448;50.904;4.694;2024-02-26T12:57:52;7.40;99.90
8824;DHT22;4448;50.904;4.694;2024-02-26T13:00:23;7.40;99.90
8824;DHT22;4448;50.904;4.694;2024-02-26T13:02:50;7.40;99.90
8824;DHT22;4448;50.904;4.694;2024-02-26T13:05:17;7.40;99.90
8824;DHT22;4448;50.904;4.694;2024-02-26T13:07:45;7.40;99.90
8824;DHT22;4448;50.904;4.694;2024-02-26T13:10:13;7.40;99.90
8824;DHT22;4448;50.904;4.694;2024-02-26T13:12:49;7.40;99.90
8824;DHT22;4448;50.904;4.694;2024-02-26T13:15:20;7.50;99.90
8824;DHT22;4448;50.904;4.694;2024-02-26T13:17:46;7.40;99.90
8824;DHT22;4448;50.904;4.694;2024-02-26T13:20:24;7.40;99.90
8824;DHT22;4448;50.904;4.694;2024-02-26T13:22:50;7.50;99.90
8824;DHT22;4448;50.904;4.694;2024-02-26T13:25:20;7.40;99.90
8824;DHT22;4448;50.904;4.694;2024-02-26T13:27:46;7.40;99.90
8824;DHT22;4448;50.904;4.694;2024-02-26T13:30:12;7.40;99.90
8824;DHT22;4448;50.904;4.694;2024-02-26T13:32:40;7.40;99.90
8824;DHT22;4448;50.904;4.694;2024-02-26T13:35:10;7.40;99.90
8824;DHT22;4448;50.904;4.694;2024-02-26T13:37:37;7.40;99.90
8824;DHT22;4448;50.904;4.694;2024-02-26T13:40:10;7.40;99.90
8824;DHT22;4448;50.904;4.694;2024-02-26T13:42:37;7.40;99.90
8824;DHT22;4448;50.904;4.694;2024-02-26T13:45:04;7.40;99.90
8824;DHT22;4448;50.904;4.694;2024-02-26T13:47:36;7.40;99.90
8824;DHT22;4448;50.904;4.694;2024-02-26T13:50:02;7.40;99.90
8824;DHT22;4448;50.904;4.694;2024-02-26T13:52:28;7.40;99.90
8824;DHT22;4448;50.904;4.694;2024-02-26T13:54:54;7.50;99.90
8824;DHT22;4448;50.904;4.694;2024-02-26T13:57:20;7.50;99.90
8824;DHT22;4448;50.904;4.694;2024-02-26T13:59:46;7.50;99.90
8824;DHT22;4448;50.904;4.694;2024-02-26T14:02:12;7.50;99.90
8824;DHT22;4448;50.904;4.694;2024-02-26T14:04:38;7.50;99.90
8824;DHT22;4448;50.904;4.694;2024-02-26T14:07:04;7.50;99.90
8824;DHT22;4448;50.904;4.694;2024-02-26T14:09:30;7.50;99.90
8824;DHT22;4448;50.904;4.694;2024-02-26T14:11:58;7.50;99.90
8824;DHT22;4448;50.904;4.694;2024-02-26T14:14:24;7.50;99.90
8824;DHT22;4448;50.904;4.694;2024-02-26T14:16:51;7.50;99.90
8824;DHT22;4448;50.904;4.694;2024-02-26T14:19:17;7.50;99.90
8824;DHT22;4448;50.904;4.694;2024-02-26T14:21:43;7.50;99.90
8824;DHT22;4448;50.904;4.694;2024-02-26T14:24:09;7.50;99.90
8824;DHT22;4448;50.904;4.694;2024-02-26T14:26:35;7.50;99.90
8824;DHT22;4448;50.904;4.694;2024-02-26T14:29:00;7.50;99.90
8824;DHT22;4448;50.904;4.694;2024-02-26T14:31:26;7.50;99.90
8824;DHT22;4448;50.904;4.694;2024-02-26T14:33:52;7.50;99.90
8824;DHT22;4448;50.904;4.694;2024-02-26T14:36:22;7.50;99.90
8824;DHT22;4448;50.904;4.694;2024-02-26T14:38:48;7.50;99.90
8824;DHT22;4448;50.904;4.694;2024-02-26T14:41:14;7.50;99.90
8824;DHT22;4448;50.904;4.694;2024-02-26T14:43:40;7.50;99.90
8824;DHT22;4448;50.904;4.694;2024-02-26T14:46:06;7.50;99.90
8824;DHT22;4448;50.904;4.694;2024-02-26T14:48:32;7.50;99.90
8824;DHT22;4448;50.904;4.694;2024-02-26T14:50:58;7.50;99.90
8824;DHT22;4448;50.904;4.694;2024-02-26T14:53:24;7.50;99.90
8824;DHT22;4448;50.904;4.694;2024-02-26T14:55:50;7.50;99.90
8824;DHT22;4448;50.904;4.694;2024-02-26T14:58:16;7.50;99.90
8824;DHT22;4448;50.904;4.694;2024-02-26T15:00:42;7.50;99.90
8824;DHT22;4448;50.904;4.694;2024-02-26T15:03:08;7.40;99.90
8824;DHT22;4448;50.904;4.694;2024-02-26T15:05:35;7.40;99.90
8824;DHT22;4448;50.904;4.694;2024-02-26T15:08:01;7.40;99.90
8824;DHT22;4448;50.904;4.694;2024-02-26T15:10:28;7.30;99.90
8824;DHT22;4448;50.904;4.694;2024-02-26T15:12:56;7.40;99.90
8824;DHT22;4448;50.904;4.694;2024-02-26T15:15:22;7.40;99.90
8824;DHT22;4448;50.904;4.694;2024-02-26T15:17:48;7.40;99.90
8824;DHT22;4448;50.904;4.694;2024-02-26T15:20:15;7.40;99.90
8824;DHT22;4448;50.904;4.694;2024-02-26T15:22:41;7.40;99.90
8824;DHT22;4448;50.904;4.694;2024-02-26T15:25:08;7.40;99.90
8824;DHT22;4448;50.904;4.694;2024-02-26T15:27:34;7.40;99.90
8824;DHT22;4448;50.904;4.694;2024-02-26T15:30:00;7.40;99.90
8824;DHT22;4448;50.904;4.694;2024-02-26T15:32:26;7.40;99.90
8824;DHT22;4448;50.904;4.694;2024-02-26T15:34:53;7.40;99.90
8824;DHT22;4448;50.904;4.694;2024-02-26T15:37:19;7.40;99.90
8824;DHT22;4448;50.904;4.694;2024-02-26T15:39:45;7.40;99.90
8824;DHT22;4448;50.904;4.694;2024-02-26T15:42:11;7.40;99.90
8824;DHT22;4448;50.904;4.694;2024-02-26T15:44:41;7.40;99.90
8824;DHT22;4448;50.904;4.694;2024-02-26T15:47:07;7.40;99.90
8824;DHT22;4448;50.904;4.694;2024-02-26T15:49:33;7.40;99.90
8824;DHT22;4448;50.904;4.694;2024-02-26T15:51:59;7.40;99.90
8824;DHT22;4448;50.904;4.694;2024-02-26T15:54:25;7.40;99.90
8824;DHT22;4448;50.904;4.694;2024-02-26T15:56:51;7.40;99.90
8824;DHT22;4448;50.904;4.694;2024-02-26T15:59:17;7.40;99.90
8824;DHT22;4448;50.904;4.694;2024-02-26T16:01:43;7.40;99.90
8824;DHT22;4448;50.904;4.694;2024-02-26T16:04:10;7.40;99.90
8824;DHT22;4448;50.904;4.694;2024-02-26T16:06:51;7.40;99.90
8824;DHT22;4448;50.904;4.694;2024-02-26T16:09:18;7.40;99.90
8824;DHT22;4448;50.904;4.694;2024-02-26T16:11:44;7.40;99.90
8824;DHT22;4448;50.904;4.694;2024-02-26T16:17:21;7.40;99.90
8824;DHT22;4448;50.904;4.694;2024-02-26T16:19:48;7.40;99.90
8824;DHT22;4448;50.904;4.694;2024-02-26T16:22:14;7.40;99.90
8824;DHT22;4448;50.904;4.694;2024-02-26T16:24:40;7.40;99.90
8824;DHT22;4448;50.904;4.694;2024-02-26T16:27:06;7.40;99.90
8824;DHT22;4448;50.904;4.694;2024-02-26T16:29:31;7.40;99.90
8824;DHT22;4448;50.904;4.694;2024-02-26T16:31:57;7.40;99.90
8824;DHT22;4448;50.904;4.694;2024-02-26T16:34:23;7.30;99.90
8824;DHT22;4448;50.904;4.694;2024-02-26T16:36:49;7.30;99.90
8824;DHT22;4448;50.904;4.694;2024-02-26T16:39:15;7.30;99.90
8824;DHT22;4448;50.904;4.694;2024-02-26T16:41:42;7.30;99.90
8824;DHT22;4448;50.904;4.694;2024-02-26T16:44:08;7.30;99.90
8824;DHT22;4448;50.904;4.694;2024-02-26T16:46:34;7.30;99.90
8824;DHT22;4448;50.904;4.694;2024-02-26T16:49:00;7.30;99.90
8824;DHT22;4448;50.904;4.694;2024-02-26T16:51:25;7.30;99.90
8824;DHT22;4448;50.904;4.694;2024-02-26T16:53:51;7.30;99.90
8824;DHT22;4448;50.904;4.694;2024-02-26T16:56:17;7.30;99.90
8824;DHT22;4448;50.904;4.694;2024-02-26T16:58:43;7.30;99.90
8824;DHT22;4448;50.904;4.694;2024-02-26T17:01:09;7.30;99.90
8824;DHT22;4448;50.904;4.694;2024-02-26T17:03:34;7.30;99.90
8824;DHT22;4448;50.904;4.694;2024-02-26T17:06:00;7.30;99.90
8824;DHT22;4448;50.904;4.694;2024-02-26T17:08:26;7.30;99.90
8824;DHT22;4448;50.904;4.694;2024-02-26T17:10:53;7.30;99.90
8824;DHT22;4448;50.904;4.694;2024-02-26T17:13:19;7.30;99.90
8824;DHT22;4448;50.904;4.694;2024-02-26T17:15:44;7.30;99.90
8824;DHT22;4448;50.904;4.694;2024-02-26T17:18:10;7.30;99.90
8824;DHT22;4448;50.904;4.694;2024-02-26T17:20:39;7.30;99.90
8824;DHT22;4448;50.904;4.694;2024-02-26T17:23:05;7.30;99.90
8824;DHT22;4448;50.904;4.694;2024-02-26T17:25:31;7.30;99.90
8824;DHT22;4448;50.904;4.694;2024-02-26T17:27:57;7.30;99.90
8824;DHT22;4448;50.904;4.694;2024-02-26T17:30:23;7.30;99.90
8824;DHT22;4448;50.904;4.694;2024-02-26T17:32:49;7.30;99.90
8824;DHT22;4448;50.904;4.694;2024-02-26T17:35:15;7.30;99.90
8824;DHT22;4448;50.904;4.694;2024-02-26T17:37:45;7.30;99.90
8824;DHT22;4448;50.904;4.694;2024-02-26T17:40:12;7.30;99.90
8824;DHT22;4448;50.904;4.694;2024-02-26T17:42:38;7.30;99.90
8824;DHT22;4448;50.904;4.694;2024-02-26T17:45:04;7.30;99.90
8824;DHT22;4448;50.904;4.694;2024-02-26T17:47:30;7.30;99.90
8824;DHT22;4448;50.904;4.694;2024-02-26T17:49:57;7.30;99.90
8824;DHT22;4448;50.904;4.694;2024-02-26T17:52:23;7.30;99.90
8824;DHT22;4448;50.904;4.694;2024-02-26T17:54:49;7.30;99.90
8824;DHT22;4448;50.904;4.694;2024-02-26T17:57:15;7.30;99.90
8824;DHT22;4448;50.904;4.694;2024-02-26T17:59:40;7.30;99.90
8824;DHT22;4448;50.904;4.694;2024-02-26T18:02:06;7.30;99.90
8824;DHT22;4448;50.904;4.694;2024-02-26T18:04:32;7.30;99.90
8824;DHT22;4448;50.904;4.694;2024-02-26T18:06:58;7.30;99.90
8824;DHT22;4448;50.904;4.694;2024-02-26T18:09:26;7.30;99.90
8824;DHT22;4448;50.904;4.694;2024-02-26T18:11:53;7.30;99.90